aviador You're here:

KACV Decoded Metar

ARCATA/EUREKA in CA, USA
Report Time2018-01-16 21:11:00
UTC Time2018-01-16 21:18:32
Flight Rules mvfr MVFR
Wind280° at 04 kt
W.Decomp.*RWY 32: 2.2 kt HW 3.4 kt LCW
RWY 19: 1.2 kt HW 3.8 kt RCW
W.Rank280° ranks 19
Current wind is below 280° avg. (5.2)
Visibility8047 m
Phenomena:Haze
Clouds:Scattered 006 Hf
Expected CloudBase > 1,200 ft AGL from Temp-Dew spread
CeilingNone
Temp14°C (ISA -1)
Dew Point11°C (82% RH)
AAT12.9°C
QNH1023 hPa
Density Alt-7 ft
Elevation220 ft
Report Wrong Elevation
Raw Report
KACV 162111Z AUTO 28004KT 5SM HZ SCT006 14/11 A3022 RMK AO2
T01390106=

Extra information for KACV:More info

Metar Taf Metar & Taf Last 4 Metars F.Rules Stats Wind Profile Meteogram Temp Stats Airport Information Weather charts Add Link Nearby VenuesMetar ALERT Operation Metar Decoded Social comments

AIRNAV info for KACV